Flight Track Log - Related Links

Times and Time Zones

All times are in EDT time to prevent confusion due to time zone crossing. See the FLG3306 flight status page for this flight to view local times or setup timezone preferences in your user account.

Time Position Orientation Groundspeed Altitude Reporting Facility
EDT Latitude Longitude Course Direction KTS MPH feet Rate Location/Type
Mon 08:53:22 AM 32.8833 -97.0333 57° Northeast 142 163 1,100  Level Dallas / Fort Worth TRACON
Mon 08:53:46 AM 32.8667 -97.0333 180° South 147 169 2,100 2,071 Climbing Dallas / Fort Worth TRACON
Mon 08:54:46 AM 32.8333 -97.0167 157° South 197 227 4,000 2,100 Climbing Dallas / Fort Worth TRACON
Mon 08:55:46 AM 32.7667 -96.9667 148° Southeast 270 311 6,300 2,600 Climbing Dallas / Fort Worth TRACON
Mon 08:56:00 AM 32.8121 -96.7440 53° Northeast  Level FlightAware Approximate
Mon 08:56:46 AM 32.7667 -96.8667 90° East 278 320 9,200  Level Dallas / Fort Worth TRACON
Mon 08:57:00 AM 32.8830 -96.6339 52° Northeast  Level FlightAware Approximate
Mon 08:57:46 AM 32.8000 -96.7833 65° Northeast 331 381 10,500  Level Dallas / Fort Worth TRACON
Mon 08:58:00 AM 32.9547 -96.5247 57° Northeast  Level FlightAware Approximate
Mon 08:58:46 AM 32.8500 -96.6833 59° Northeast 347 399 12,700  Level Dallas / Fort Worth TRACON
Mon 08:59:34 AM 32.9061 -96.6142 46° Northeast 358 412 14,600 2,167 Climbing Fort Worth Center
Mon 09:00:34 AM 32.9556 -96.5369 53° Northeast 388 447 16,600 1,950 Climbing Fort Worth Center
Mon 09:01:34 AM 33.0236 -96.4297 53° Northeast 382 440 18,500 1,850 Climbing Fort Worth Center
Mon 09:02:34 AM 33.0833 -96.3250 56° Northeast 382 440 20,300 1,500 Climbing Fort Worth Center
Mon 09:03:34 AM 33.1219 -96.2006 70° East 382 440 21,500 1,400 Climbing Fort Worth Center
Mon 09:04:34 AM 33.1622 -96.0658 70° East 416 479 23,100 1,550 Climbing Fort Worth Center
Mon 09:05:34 AM 33.2003 -95.9289 72° East 428 493 24,600 1,350 Climbing Fort Worth Center
Mon 09:06:34 AM 33.2425 -95.7892 70° East 433 498 25,800 1,350 Climbing Fort Worth Center
Mon 09:07:34 AM 33.2844 -95.6467 71° East 439 505 27,300 1,250 Climbing Fort Worth Center
Mon 09:08:34 AM 33.3181 -95.5192 72° East 445 512 28,300 1,150 Climbing Fort Worth Center
Mon 09:09:34 AM 33.3617 -95.3714 71° East 445 512 29,600 1,350 Climbing Fort Worth Center
Mon 09:10:34 AM 33.4050 -95.2236 71° East 456 525 31,000 1,500 Climbing Fort Worth Center
Mon 09:11:34 AM 33.4464 -95.0783 71° East 461 531 32,600 1,400 Climbing Fort Worth Center
Mon 09:12:34 AM 33.4914 -94.9325 70° East 461 531 33,800 1,100 Climbing Fort Worth Center
Mon 09:13:34 AM 33.5342 -94.7769 72° East 461 531 34,800 950 Climbing Fort Worth Center
Mon 09:15:56 AM 33.6303 -94.4336 71° East 449 517 37,000 653 Climbing Memphis Center
Mon 09:16:56 AM 33.6747 -94.2861 70° East 455 524 37,000  Level Memphis Center
Mon 09:17:56 AM 33.7314 -94.1389 65° Northeast 468 539 37,000  Level Memphis Center
Mon 09:18:57 AM 33.8003 -94.0017 59° Northeast 473 544 37,000  Level Memphis Center
Mon 09:19:56 AM 33.8669 -93.8619 60° Northeast 473 544 37,000  Level Memphis Center
Mon 09:20:56 AM 33.9375 -93.7247 58° Northeast 473 544 37,000  Level Memphis Center
Mon 09:21:56 AM 33.9928 -93.6114 60° Northeast 473 544 37,000  Level Memphis Center
Mon 09:22:56 AM 34.0653 -93.4639 59° Northeast 473 544 37,000  Level Memphis Center
Mon 09:23:56 AM 34.1333 -93.3233 60° Northeast 478 550 37,000  Level Memphis Center
Mon 09:24:56 AM 34.2014 -93.1850 59° Northeast 478 550 37,000  Level Memphis Center
Mon 09:25:56 AM 34.2711 -93.0464 59° Northeast 478 550 37,000  Level Memphis Center
Mon 09:26:56 AM 34.3325 -92.9000 63° Northeast 478 550 37,000  Level Memphis Center
Mon 09:27:56 AM 34.4000 -92.7586 60° Northeast 478 550 37,000  Level Memphis Center
Mon 09:28:57 AM 34.4694 -92.6194 59° Northeast 478 550 37,000  Level Memphis Center
Mon 09:29:56 AM 34.5367 -92.4775 60° Northeast 478 550 37,000  Level Memphis Center
Mon 09:30:57 AM 34.6017 -92.3378 60° Northeast 478 550 37,000  Level Memphis Center
Mon 09:31:56 AM 34.6683 -92.1981 60° Northeast 478 550 37,000  Level Memphis Center
Mon 09:32:56 AM 34.7536 -92.0811 48° Northeast 472 543 37,000  Level Memphis Center
Mon 09:33:56 AM 34.8447 -91.9664 46° Northeast 466 536 37,000  Level Memphis Center
Mon 09:34:56 AM 34.9422 -91.8417 46° Northeast 461 531 37,000  Level Memphis Center
Mon 09:35:56 AM 35.0292 -91.7264 47° Northeast 461 531 37,000  Level Memphis Center
Mon 09:36:56 AM 35.1200 -91.6136 45° Northeast 461 531 37,000  Level Memphis Center
Mon 09:37:56 AM 35.2086 -91.4981 47° Northeast 461 531 37,000  Level Memphis Center
Mon 09:38:56 AM 35.2994 -91.3822 46° Northeast 461 531 37,000  Level Memphis Center
Mon 09:39:56 AM 35.3900 -91.2636 47° Northeast 467 537 37,000  Level Memphis Center
Mon 09:40:56 AM 35.4742 -91.1575 46° Northeast 467 537 37,000  Level Memphis Center
Mon 09:41:57 AM 35.5731 -91.0283 47° Northeast 472 543 37,000  Level Memphis Center
Mon 09:42:56 AM 35.6611 -90.9114 47° Northeast 465 535 37,000  Level Memphis Center
Mon 09:43:57 AM 35.7450 -90.7919 49° Northeast 460 529 37,000  Level Memphis Center
Mon 09:44:56 AM 35.8331 -90.6744 47° Northeast 460 529 37,000  Level Memphis Center
Mon 09:45:57 AM 35.9228 -90.5594 46° Northeast 460 529 37,000  Level Memphis Center
Mon 09:46:56 AM 36.0106 -90.4417 47° Northeast 465 535 37,000  Level Memphis Center
Mon 09:47:57 AM 36.1003 -90.3236 47° Northeast 465 535 37,000  Level Memphis Center
Mon 09:48:57 AM 36.1836 -90.2078 48° Northeast 465 535 37,000  Level Memphis Center
Mon 09:49:57 AM 36.2750 -90.0867 47° Northeast 465 535 37,000  Level Memphis Center
Mon 09:50:57 AM 36.3581 -89.9575 51° Northeast 470 541 37,000  Level Memphis Center
Mon 09:51:56 AM 36.4158 -89.8308 60° Northeast 470 541 37,000 -500 Level Memphis Center
Mon 09:52:57 AM 36.4819 -89.6858 60° Northeast 476 548 36,000 -1,000 Descending Memphis Center
Mon 09:53:56 AM 36.5394 -89.5356 64° Northeast 476 548 35,000 -706 Descending Memphis Center
Mon 09:54:56 AM 36.5925 -89.3800 67° East 470 541 34,600 -744 Descending Memphis Center
Mon 09:55:57 AM 36.6392 -89.2294 69° East 475 547 33,500 -1,050 Descending Memphis Center
Mon 09:56:56 AM 36.7275 -89.1067 48° Northeast 467 537 32,500 -1,008 Descending Memphis Center
Mon 09:57:56 AM 36.8286 -88.9961 41° Northeast 462 532 31,500 -750 Descending Memphis Center
Mon 09:58:56 AM 36.9314 -88.8853 41° Northeast 467 537 31,000 -248 Descending Memphis Center
Mon 09:59:57 AM 37.0342 -88.7717 41° Northeast 480 552 31,000  Level Memphis Center
Mon 10:00:56 AM 37.1369 -88.6578 41° Northeast 486 559 31,000  Level Memphis Center
Mon 10:01:56 AM 37.2414 -88.5436 41° Northeast 486 559 31,000  Level Memphis Center
Mon 10:03:51 AM 37.4381 -88.3169 42° Northeast 494 568 31,000  Level Indianapolis Center
Mon 10:04:53 AM 37.5386 -88.2033 42° Northeast 483 556 31,000  Level Indianapolis Center
Mon 10:05:55 AM 37.6422 -88.0883 41° Northeast 489 563 31,000  Level Indianapolis Center
Mon 10:06:57 AM 37.7428 -87.9731 42° Northeast 484 557 31,000 -194 Level Indianapolis Center
Mon 10:07:59 AM 37.8511 -87.8494 42° Northeast 485 558 30,600 -878 Descending Indianapolis Center
Mon 10:09:00 AM 37.9047 -87.6928 67° East 479 551 29,200 -1,366 Descending Indianapolis Center
Mon 10:10:02 AM 37.9569 -87.5403 66° East 473 544 27,800 -1,355 Descending Indianapolis Center
Mon 10:11:04 AM 38.0078 -87.3925 66° East 461 531 26,400 -1,306 Descending Indianapolis Center
Mon 10:12:06 AM 38.0567 -87.2478 67° East 451 519 25,100 -677 Descending Indianapolis Center
Mon 10:13:08 AM 38.1150 -87.0767 67° East 446 513 25,000 -581 Descending Indianapolis Center
Mon 10:14:10 AM 38.1639 -86.9300 67° East 458 527 23,900 -1,210 Descending Indianapolis Center
Mon 10:15:12 AM 38.2131 -86.7842 67° East 457 526 22,500 -1,355 Descending Indianapolis Center
Mon 10:16:14 AM 38.2614 -86.6392 67° East 449 517 21,100 -726 Descending Indianapolis Center
Mon 10:17:16 AM 38.3094 -86.4950 67° East 445 512 21,000 -48 Descending Indianapolis Center
Mon 10:18:18 AM 38.3661 -86.3206 67° East 444 511 21,000 -488 Level Indianapolis Center
Mon 10:19:19 AM 38.4164 -86.1767 66° East 446 513 20,000 -1,512 Descending Indianapolis Center
Mon 10:20:21 AM 38.4697 -86.0308 65° Northeast 450 518 17,900 -1,790 Descending Indianapolis Center
Mon 10:21:23 AM 38.5175 -85.8928 66° East 429 494 16,300 -1,645 Descending Indianapolis Center
Mon 10:22:25 AM 38.5664 -85.7556 65° Northeast 425 489 14,500 -1,742 Descending Indianapolis Center
Mon 10:23:27 AM 38.6139 -85.6200 66° East 418 481 12,700 -1,694 Descending Indianapolis Center
Mon 10:24:29 AM 38.6625 -85.4794 66° East 405 466 11,000 -829 Descending Indianapolis Center
Mon 10:25:30 AM 38.7153 -85.3575 61° Northeast 395 455 11,000  Level Indianapolis Center
Mon 10:26:32 AM 38.7672 -85.2375 61° Northeast 389 448 11,000  Level Indianapolis Center
Mon 10:27:34 AM 38.8197 -85.1156 61° Northeast 392 451 11,000 -78 Level Indianapolis Center
Mon 10:29:06 AM 38.9167 -84.9000 60° Northeast 390 449 10,800 -484 Descending Cincinnati TRACON
Mon 10:29:38 AM 38.9311 -84.8544 68° East 374 430 10,000 -1,300 Descending Indianapolis Center
Mon 10:30:06 AM 38.9500 -84.8000 66° East 316 364 9,500 -638 Descending Cincinnati TRACON
Mon 10:31:12 AM 39.0500 -84.7833 North 308 354 9,000 -1,048 Descending Cincinnati TRACON
Mon 10:32:12 AM 39.1333 -84.7833 360° North 305 351 7,300 -1,516 Descending Cincinnati TRACON
Mon 10:32:43 AM 39.1664 -84.7789 North 303 349 6,700 -1,613 Descending Indianapolis Center
Mon 10:33:45 AM 39.2297 -84.7333 29° Northeast 294 338 4,800 -1,839 Descending Indianapolis Center

Login

Don't have an account? Register now (free) for customized features, flight alerts, and more!